Time;durP1;ratioP1;P1;durP2;ratioP2;P2;SDS_P1;SDS_P2;PMS_P1;PMS_P2;Temp;Humidity;BMP_temperature;BMP_pressure;BME280_temperature;BME280_humidity;BME280_pressure;Samples;Min_cycle;Max_cycle;Signal;HPM_P1;HPM_P2
2024/01/28 00:02:15;;;;;;;10.03;5.83;;;2.00;99.90;;;;;;5134824;28;20047;-65
2024/01/28 00:04:41;;;;;;;11.73;5.78;;;1.90;99.90;;;;;;5134610;28;20272;-64
2024/01/28 00:07:06;;;;;;;15.65;6.00;;;1.90;99.90;;;;;;5134518;28;20032;-64
2024/01/28 00:09:32;;;;;;;13.93;6.80;;;1.80;99.90;;;;;;5134453;28;20088;-65
2024/01/28 00:11:57;;;;;;;10.57;5.68;;;1.80;99.90;;;;;;5134445;28;20068;-65
2024/01/28 00:14:23;;;;;;;11.27;6.22;;;1.80;99.90;;;;;;5134481;28;20028;-65
2024/01/28 00:16:49;;;;;;;12.63;5.78;;;1.80;99.90;;;;;;5134417;28;20054;-65
2024/01/28 00:19:15;;;;;;;12.55;5.57;;;1.80;99.90;;;;;;5134073;28;20405;-65
2024/01/28 00:21:40;;;;;;;8.27;4.90;;;1.80;99.90;;;;;;5134196;28;20028;-64
2024/01/28 00:24:07;;;;;;;11.55;4.82;;;1.80;99.90;;;;;;5134406;28;20452;-65
2024/01/28 00:26:39;;;;;;;9.88;4.93;;;1.80;99.90;;;;;;5134229;28;20027;-65
2024/01/28 00:29:06;;;;;;;10.52;5.28;;;1.80;99.90;;;;;;5133726;28;20052;-65
2024/01/28 00:31:32;;;;;;;8.68;4.88;;;1.70;99.90;;;;;;5134012;28;20038;-64
2024/01/28 00:33:57;;;;;;;10.43;4.72;;;1.70;99.90;;;;;;5134067;28;20043;-65
2024/01/28 00:36:23;;;;;;;9.38;4.97;;;1.70;99.90;;;;;;5133888;28;20449;-64
2024/01/28 00:38:49;;;;;;;9.85;4.78;;;1.70;99.90;;;;;;5133904;28;20091;-64
2024/01/28 00:41:29;;;;;;;11.15;5.65;;;1.70;99.90;;;;;;5133843;28;20043;-65
2024/01/28 00:43:56;;;;;;;11.40;5.00;;;1.70;99.90;;;;;;5133763;28;20038;-64
2024/01/28 00:46:22;;;;;;;13.48;5.38;;;1.70;99.90;;;;;;5133844;28;20075;-65
2024/01/28 00:48:48;;;;;;;9.43;5.43;;;1.70;99.90;;;;;;5132380;28;20024;-65
2024/01/28 00:51:14;;;;;;;9.35;4.95;;;1.70;99.90;;;;;;5133645;28;20027;-64
2024/01/28 00:53:40;;;;;;;10.20;5.15;;;1.80;99.90;;;;;;5133634;28;20075;-65
2024/01/28 00:56:06;;;;;;;11.60;5.78;;;1.80;99.90;;;;;;5133739;28;20034;-65
2024/01/28 00:58:31;;;;;;;9.32;4.70;;;1.90;99.90;;;;;;5133512;28;20043;-65
2024/01/28 01:00:57;;;;;;;10.50;5.22;;;1.90;99.90;;;;;;5133491;28;20027;-65
2024/01/28 01:03:23;;;;;;;12.70;5.13;;;2.00;99.90;;;;;;5133438;28;20049;-65
2024/01/28 01:05:48;;;;;;;11.93;5.32;;;2.00;99.90;;;;;;5133413;28;20032;-64
2024/01/28 01:08:14;;;;;;;10.30;4.97;;;2.00;99.90;;;;;;5133327;28;20027;-65
2024/01/28 01:10:41;;;;;;;9.95;5.03;;;2.10;99.90;;;;;;5133302;28;20069;-65
2024/01/28 01:13:07;;;;;;;16.95;5.65;;;2.10;99.90;;;;;;5133312;28;20016;-65
2024/01/28 01:15:33;;;;;;;13.75;5.40;;;2.10;99.90;;;;;;5132845;28;20059;-65
2024/01/28 01:17:59;;;;;;;13.20;5.03;;;2.10;99.90;;;;;;5133068;28;20115;-65
2024/01/28 01:20:25;;;;;;;16.42;5.50;;;2.20;99.90;;;;;;5133204;28;20027;-64
2024/01/28 01:22:50;;;;;;;11.77;5.00;;;2.20;99.90;;;;;;5133300;28;20440;-65
2024/01/28 01:25:16;;;;;;;12.18;4.90;;;2.20;99.90;;;;;;5133218;28;20023;-65
2024/01/28 01:27:45;;;;;;;11.77;5.70;;;2.20;99.90;;;;;;5133119;28;20032;-65
2024/01/28 01:30:11;;;;;;;11.85;4.68;;;2.20;99.90;;;;;;5132873;28;20044;-65
2024/01/28 01:32:38;;;;;;;8.75;4.60;;;2.20;99.90;;;;;;5132948;28;20024;-65
2024/01/28 01:35:04;;;;;;;9.80;5.00;;;2.10;99.90;;;;;;5133057;28;20022;-64
2024/01/28 01:37:30;;;;;;;10.88;5.35;;;2.10;99.90;;;;;;5133139;28;20032;-65
2024/01/28 01:39:56;;;;;;;10.07;5.05;;;2.10;99.90;;;;;;5132995;28;20032;-64
2024/01/28 01:42:21;;;;;;;11.57;5.43;;;2.10;99.90;;;;;;5132987;28;20107;-65
2024/01/28 01:44:47;;;;;;;13.98;5.53;;;2.10;99.90;;;;;;5132908;28;20031;-65
2024/01/28 01:47:12;;;;;;;10.43;4.35;;;2.10;99.90;;;;;;5132830;28;20032;-65
2024/01/28 01:49:38;;;;;;;12.73;5.00;;;2.10;99.90;;;;;;5132579;28;20039;-65
2024/01/28 01:52:06;;;;;;;13.05;5.57;;;2.10;99.90;;;;;;5132909;28;20049;-65
2024/01/28 01:54:32;;;;;;;14.27;6.05;;;2.10;99.90;;;;;;5132866;28;20087;-64
2024/01/28 01:56:58;;;;;;;12.15;5.07;;;2.00;99.90;;;;;;5132868;28;20026;-65
2024/01/28 01:59:24;;;;;;;11.77;5.40;;;2.00;99.90;;;;;;5132735;28;20357;-64
2024/01/28 02:01:54;;;;;;;10.57;5.00;;;2.00;99.90;;;;;;5132735;28;20051;-65
2024/01/28 02:04:20;;;;;;;10.50;5.60;;;2.10;99.90;;;;;;5132806;28;20007;-65
2024/01/28 02:06:46;;;;;;;9.27;4.93;;;2.10;99.90;;;;;;5132821;28;20023;-65
2024/01/28 02:09:12;;;;;;;13.50;5.43;;;2.10;99.90;;;;;;5132738;28;20023;-64
2024/01/28 02:11:38;;;;;;;13.95;5.05;;;2.10;99.90;;;;;;5132750;28;20040;-65
2024/01/28 02:14:04;;;;;;;16.75;5.78;;;2.10;99.90;;;;;;5132755;28;20020;-64
2024/01/28 02:16:30;;;;;;;9.77;4.93;;;2.10;99.90;;;;;;5132617;28;20034;-64
2024/01/28 02:18:55;;;;;;;16.95;5.45;;;2.10;99.90;;;;;;5132369;28;20028;-65
2024/01/28 02:21:21;;;;;;;12.30;5.00;;;2.10;99.90;;;;;;5132460;28;20038;-65
2024/01/28 02:23:46;;;;;;;12.10;5.53;;;2.20;99.90;;;;;;5132634;28;20048;-65
2024/01/28 02:26:12;;;;;;;9.65;5.38;;;2.20;99.90;;;;;;5132698;28;20062;-64
2024/01/28 02:28:38;;;;;;;11.27;5.05;;;2.20;99.90;;;;;;5134391;28;20052;-64
2024/01/28 02:31:03;;;;;;;13.02;5.50;;;2.20;99.90;;;;;;5136384;28;20051;-65
2024/01/28 02:33:29;;;;;;;10.93;4.65;;;2.10;99.90;;;;;;5136390;28;20038;-64
2024/01/28 02:35:55;;;;;;;12.32;4.78;;;2.10;99.90;;;;;;5136385;28;20080;-65
2024/01/28 02:38:20;;;;;;;12.52;5.00;;;2.00;99.90;;;;;;5136357;28;20123;-65
2024/01/28 02:40:49;;;;;;;11.65;4.72;;;2.00;99.90;;;;;;5136302;28;20783;-65
2024/01/28 02:43:14;;;;;;;9.73;5.13;;;1.90;99.90;;;;;;5136238;28;20050;-64
2024/01/28 02:45:40;;;;;;;12.70;5.40;;;1.90;99.90;;;;;;5136253;28;20031;-65
2024/01/28 02:48:06;;;;;;;10.23;4.78;;;1.90;99.90;;;;;;5135958;28;20036;-65
2024/01/28 02:50:32;;;;;;;11.77;4.93;;;1.80;99.90;;;;;;5136023;28;20032;-65
2024/01/28 02:52:57;;;;;;;11.50;5.07;;;1.80;99.90;;;;;;5136080;28;20023;-64
2024/01/28 02:55:23;;;;;;;11.38;4.57;;;1.70;99.90;;;;;;5136080;28;20051;-65
2024/01/28 02:57:49;;;;;;;11.45;5.55;;;1.70;99.90;;;;;;5135829;28;20028;-65
2024/01/28 03:00:15;;;;;;;15.95;5.72;;;1.70;99.90;;;;;;5135816;28;20024;-65
2024/01/28 03:02:40;;;;;;;11.82;5.22;;;1.70;99.90;;;;;;5135905;28;20027;-65
2024/01/28 03:05:09;;;;;;;9.27;5.22;;;1.70;99.90;;;;;;5135798;28;20028;-65
2024/01/28 03:07:35;;;;;;;13.38;5.10;;;1.70;99.90;;;;;;5135765;28;20026;-64
2024/01/28 03:10:01;;;;;;;10.95;5.28;;;1.70;99.90;;;;;;5135591;28;20051;-65
2024/01/28 03:12:26;;;;;;;12.07;5.10;;;1.70;99.90;;;;;;5135841;28;20023;-64
2024/01/28 03:14:52;;;;;;;19.90;5.68;;;1.60;99.90;;;;;;5135637;28;20031;-65
2024/01/28 03:17:18;;;;;;;10.50;4.25;;;1.60;99.90;;;;;;5135616;28;20041;-65
2024/01/28 03:19:43;;;;;;;10.90;4.65;;;1.60;99.90;;;;;;5135257;28;20039;-65
2024/01/28 03:22:09;;;;;;;17.45;5.18;;;1.50;99.90;;;;;;5135550;28;20076;-64
2024/01/28 03:24:36;;;;;;;12.50;5.20;;;1.50;99.90;;;;;;5135356;28;20039;-64
2024/01/28 03:27:01;;;;;;;9.40;4.72;;;1.50;99.90;;;;;;5135326;28;20092;-64
2024/01/28 03:29:27;;;;;;;9.90;4.95;;;1.50;99.90;;;;;;5134825;28;20048;-65
2024/01/28 03:31:52;;;;;;;11.45;4.80;;;1.50;99.90;;;;;;5135391;28;20032;-65
2024/01/28 03:34:18;;;;;;;11.38;4.88;;;1.50;99.90;;;;;;5135311;28;20051;-64
2024/01/28 03:36:43;;;;;;;11.13;4.45;;;1.50;99.90;;;;;;5135261;28;20088;-64
2024/01/28 03:39:09;;;;;;;11.93;5.00;;;1.60;99.90;;;;;;5134757;28;20031;-65
2024/01/28 03:41:35;;;;;;;14.77;4.95;;;1.60;99.90;;;;;;5135142;28;20027;-64
2024/01/28 03:44:00;;;;;;;13.27;5.47;;;1.60;99.90;;;;;;5135031;28;20032;-65
2024/01/28 03:46:26;;;;;;;9.90;4.43;;;1.60;99.90;;;;;;5134973;28;20043;-65
2024/01/28 03:48:51;;;;;;;12.75;4.97;;;1.60;99.90;;;;;;5134715;28;20031;-65
2024/01/28 03:51:17;;;;;;;10.93;5.28;;;1.60;99.90;;;;;;5134966;28;20024;-65
2024/01/28 03:53:43;;;;;;;10.90;4.90;;;1.60;99.90;;;;;;5134882;28;20034;-65
2024/01/28 03:56:09;;;;;;;11.98;5.10;;;1.60;99.90;;;;;;5134813;28;20026;-65
2024/01/28 03:58:35;;;;;;;13.93;5.30;;;1.50;99.90;;;;;;5134649;28;20016;-65
2024/01/28 04:01:00;;;;;;;7.10;4.30;;;1.50;99.90;;;;;;5134788;28;20030;-64
2024/01/28 04:03:26;;;;;;;10.18;4.72;;;1.50;99.90;;;;;;5134623;28;20031;-65
2024/01/28 04:05:52;;;;;;;12.35;4.38;;;1.40;99.90;;;;;;5134600;28;20016;-65
2024/01/28 04:08:17;;;;;;;9.07;4.25;;;1.40;99.90;;;;;;5134512;28;20405;-65
2024/01/28 04:10:43;;;;;;;7.75;4.45;;;1.40;99.90;;;;;;5134444;28;20036;-65
2024/01/28 04:13:09;;;;;;;11.77;4.60;;;1.40;99.90;;;;;;5134363;28;20050;-64
2024/01/28 04:15:35;;;;;;;12.70;4.50;;;1.30;99.90;;;;;;5134343;28;20020;-65
2024/01/28 04:18:00;;;;;;;10.13;4.40;;;1.30;99.90;;;;;;5134131;28;20020;-64
2024/01/28 04:20:26;;;;;;;16.30;4.85;;;1.30;99.90;;;;;;5134146;28;20034;-65
2024/01/28 04:22:51;;;;;;;12.00;4.68;;;1.30;99.90;;;;;;5134285;28;20062;-65
2024/01/28 04:25:18;;;;;;;11.50;4.45;;;1.20;99.90;;;;;;5134222;28;20130;-64
2024/01/28 04:27:44;;;;;;;11.10;4.85;;;1.20;99.90;;;;;;5134079;28;20030;-65
2024/01/28 04:30:10;;;;;;;9.40;4.72;;;1.20;99.90;;;;;;5133951;28;20044;-64
2024/01/28 04:32:36;;;;;;;9.73;4.82;;;1.20;99.90;;;;;;5134020;28;20024;-65
2024/01/28 04:35:01;;;;;;;13.90;5.30;;;1.30;99.90;;;;;;5134052;28;20038;-65
2024/01/28 04:37:27;;;;;;;12.35;5.40;;;1.30;99.90;;;;;;5134155;28;20031;-65
2024/01/28 04:39:56;;;;;;;11.18;5.40;;;1.20;99.90;;;;;;5133974;28;20031;-64
2024/01/28 04:42:24;;;;;;;12.60;4.68;;;1.20;99.90;;;;;;5133861;28;20035;-65
2024/01/28 04:44:50;;;;;;;10.52;4.78;;;1.20;99.90;;;;;;5133897;28;20083;-65
2024/01/28 04:47:16;;;;;;;7.65;4.70;;;1.20;99.90;;;;;;5132834;28;20059;-65
2024/01/28 04:49:42;;;;;;;12.40;4.47;;;1.20;99.90;;;;;;5133358;28;20043;-64
2024/01/28 04:52:08;;;;;;;12.82;5.32;;;1.20;99.90;;;;;;5133146;28;20027;-65
2024/01/28 04:54:33;;;;;;;7.68;3.95;;;1.20;99.90;;;;;;5133772;28;20031;-64
2024/01/28 04:57:01;;;;;;;11.82;4.50;;;1.20;99.90;;;;;;5133614;28;20023;-64
2024/01/28 04:59:28;;;;;;;9.55;4.28;;;1.20;99.90;;;;;;5133603;28;20031;-65
2024/01/28 05:01:54;;;;;;;9.50;4.85;;;1.20;99.90;;;;;;5133647;28;20091;-64
2024/01/28 05:04:20;;;;;;;8.20;4.40;;;1.30;99.90;;;;;;5133496;28;20107;-65
2024/01/28 05:06:45;;;;;;;10.02;4.65;;;1.30;99.90;;;;;;5133485;28;20035;-65
2024/01/28 05:09:11;;;;;;;9.05;4.30;;;1.30;99.90;;;;;;5132437;28;20032;-64
2024/01/28 05:11:37;;;;;;;8.70;4.57;;;1.30;99.90;;;;;;5133356;28;20027;-65
2024/01/28 05:14:04;;;;;;;13.32;5.15;;;1.30;99.90;;;;;;5133415;28;20038;-65
2024/01/28 05:16:30;;;;;;;13.88;4.97;;;1.30;99.90;;;;;;5133336;28;20083;-65
2024/01/28 05:18:56;;;;;;;12.73;5.10;;;1.40;99.90;;;;;;5133048;28;20023;-64
2024/01/28 05:21:23;;;;;;;11.32;4.57;;;1.40;99.90;;;;;;5133215;28;20016;-65
2024/01/28 05:23:50;;;;;;;10.10;4.63;;;1.40;99.90;;;;;;5133355;28;20373;-64
2024/01/28 05:26:17;;;;;;;11.25;4.68;;;1.40;99.90;;;;;;5133235;28;20016;-65
2024/01/28 05:28:42;;;;;;;8.98;4.70;;;1.30;99.90;;;;;;5132927;28;20035;-64
2024/01/28 05:31:08;;;;;;;10.30;4.65;;;1.30;99.90;;;;;;5133247;28;20023;-65
2024/01/28 05:33:37;;;;;;;11.27;5.20;;;1.30;99.90;;;;;;5133017;28;20028;-64
2024/01/28 05:36:14;;;;;;;14.35;4.95;;;1.30;99.90;;;;;;5133077;28;20020;-64
2024/01/28 05:38:40;;;;;;;12.60;4.85;;;1.30;99.90;;;;;;5132978;28;20020;-64
2024/01/28 05:41:09;;;;;;;9.55;4.47;;;1.30;99.90;;;;;;5133060;28;20537;-65
2024/01/28 05:43:35;;;;;;;11.55;4.32;;;1.30;99.90;;;;;;5132969;28;20028;-64
2024/01/28 05:46:01;;;;;;;12.25;5.05;;;1.20;99.90;;;;;;5133118;28;20045;-65
2024/01/28 05:48:27;;;;;;;11.32;4.38;;;1.20;99.90;;;;;;5132759;28;20134;-65
2024/01/28 05:50:52;;;;;;;10.65;4.65;;;1.20;99.90;;;;;;5132786;28;20024;-64
2024/01/28 05:53:18;;;;;;;12.90;4.95;;;1.30;99.90;;;;;;5132865;28;20028;-64
2024/01/28 05:55:44;;;;;;;9.40;4.82;;;1.20;99.90;;;;;;5132899;28;20043;-65
2024/01/28 05:58:09;;;;;;;9.88;4.88;;;1.20;99.90;;;;;;5132777;28;20028;-65
2024/01/28 06:00:35;;;;;;;10.45;4.57;;;1.20;99.90;;;;;;5132877;28;20032;-65
2024/01/28 06:03:01;;;;;;;17.45;4.82;;;1.30;99.90;;;;;;5135771;28;20076;-65
2024/01/28 06:05:26;;;;;;;12.85;4.18;;;1.20;99.90;;;;;;5136897;28;20039;-64
2024/01/28 06:07:52;;;;;;;9.73;4.55;;;1.20;99.90;;;;;;5136953;28;20063;-65
2024/01/28 06:10:17;;;;;;;15.95;4.55;;;1.20;99.90;;;;;;5136869;28;20053;-64
2024/01/28 06:12:43;;;;;;;15.80;5.32;;;1.20;99.90;;;;;;5136938;28;20023;-65
2024/01/28 06:15:09;;;;;;;15.98;5.15;;;1.20;99.90;;;;;;5136836;28;20016;-65
2024/01/28 06:17:36;;;;;;;9.32;5.28;;;1.20;99.90;;;;;;5136778;28;20469;-64
2024/01/28 06:20:06;;;;;;;11.45;5.35;;;1.20;99.90;;;;;;5136455;28;20024;-64
2024/01/28 06:22:32;;;;;;;9.65;4.35;;;1.20;99.90;;;;;;5136659;28;20020;-65
2024/01/28 06:25:01;;;;;;;8.52;4.75;;;1.20;99.90;;;;;;5136661;28;20019;-65
2024/01/28 06:27:27;;;;;;;8.68;4.53;;;1.20;99.90;;;;;;5136497;28;20084;-65
2024/01/28 06:29:54;;;;;;;11.45;4.60;;;1.20;99.90;;;;;;5136280;28;20068;-65
2024/01/28 06:32:21;;;;;;;10.60;4.78;;;1.20;99.90;;;;;;5136488;28;20050;-65
2024/01/28 06:34:50;;;;;;;10.65;4.55;;;1.10;99.90;;;;;;5136335;28;20018;-65
2024/01/28 06:37:16;;;;;;;14.45;4.53;;;1.10;99.90;;;;;;5136502;28;20015;-64
2024/01/28 06:39:42;;;;;;;10.70;4.63;;;1.10;99.90;;;;;;5136262;28;20045;-65
2024/01/28 06:42:08;;;;;;;11.43;4.30;;;1.10;99.90;;;;;;5136387;28;20381;-65
2024/01/28 06:44:36;;;;;;;12.80;5.35;;;1.10;99.90;;;;;;5136242;28;20036;-65
2024/01/28 06:47:02;;;;;;;8.68;4.13;;;1.10;99.90;;;;;;5136239;28;20024;-64
2024/01/28 06:49:28;;;;;;;12.15;4.97;;;1.10;99.90;;;;;;5135778;28;20024;-65
2024/01/28 06:51:53;;;;;;;14.45;4.45;;;1.10;99.90;;;;;;5136123;28;20024;-65
2024/01/28 06:54:19;;;;;;;10.02;4.60;;;1.10;99.90;;;;;;5136063;28;20028;-64
2024/01/28 06:56:45;;;;;;;12.18;4.50;;;1.20;99.90;;;;;;5136044;28;20020;-65
2024/01/28 06:59:11;;;;;;;11.32;4.40;;;1.20;99.90;;;;;;5135931;28;20024;-65
2024/01/28 07:01:37;;;;;;;12.57;4.85;;;1.10;99.90;;;;;;5136022;28;20524;-65
2024/01/28 07:04:02;;;;;;;8.90;4.45;;;1.10;99.90;;;;;;5135774;28;20029;-65
2024/01/28 07:06:28;;;;;;;7.57;4.13;;;1.10;99.90;;;;;;5135835;28;20031;-65
2024/01/28 07:08:53;;;;;;;6.57;4.20;;;1.10;99.90;;;;;;5135564;28;20060;-64
2024/01/28 07:11:19;;;;;;;12.18;4.55;;;1.20;99.90;;;;;;5135712;28;20016;-65
2024/01/28 07:13:45;;;;;;;10.57;4.50;;;1.20;99.90;;;;;;5134757;28;20084;-65
2024/01/28 07:16:12;;;;;;;13.82;4.53;;;1.20;99.90;;;;;;5134637;28;20024;-64
2024/01/28 07:18:37;;;;;;;8.38;4.07;;;1.20;99.90;;;;;;5135261;28;20016;-64
2024/01/28 07:21:04;;;;;;;10.00;4.18;;;1.10;99.90;;;;;;5135532;28;20024;-64
2024/01/28 07:23:29;;;;;;;12.88;4.38;;;1.20;99.90;;;;;;5135493;28;20020;-65
2024/01/28 07:25:55;;;;;;;9.13;4.43;;;1.20;99.90;;;;;;5135473;28;20020;-64
2024/01/28 07:28:21;;;;;;;12.00;4.03;;;1.20;99.90;;;;;;5135342;28;20040;-64
2024/01/28 07:30:46;;;;;;;10.60;4.47;;;1.20;99.90;;;;;;5135076;28;20069;-65
2024/01/28 07:33:13;;;;;;;9.15;4.25;;;1.20;99.90;;;;;;5135155;28;20481;-65
2024/01/28 07:35:38;;;;;;;11.85;4.18;;;1.20;99.90;;;;;;5135285;28;20026;-65
2024/01/28 07:38:04;;;;;;;14.70;4.65;;;1.20;99.90;;;;;;5135215;28;20027;-64
2024/01/28 07:40:30;;;;;;;13.05;4.10;;;1.20;99.90;;;;;;5135232;28;20555;-65
2024/01/28 07:42:56;;;;;;;12.02;4.80;;;1.20;99.90;;;;;;5135145;28;20032;-64
2024/01/28 07:45:22;;;;;;;11.50;6.25;;;1.20;99.90;;;;;;5135142;28;20047;-64
2024/01/28 07:47:47;;;;;;;19.55;6.95;;;1.20;99.90;;;;;;5134922;28;20055;-64
2024/01/28 07:50:13;;;;;;;17.23;6.32;;;1.30;99.90;;;;;;5134727;28;20035;-65
2024/01/28 07:52:40;;;;;;;21.70;6.25;;;1.30;99.90;;;;;;5134987;28;20032;-65
2024/01/28 07:55:06;;;;;;;14.82;5.40;;;1.30;99.90;;;;;;5134867;28;20027;-65
2024/01/28 07:57:32;;;;;;;10.25;4.70;;;1.30;99.90;;;;;;5134885;28;20043;-65
2024/01/28 07:59:57;;;;;;;10.32;4.55;;;1.40;99.90;;;;;;5134753;28;20028;-65
2024/01/28 08:02:23;;;;;;;11.43;4.30;;;1.40;99.90;;;;;;5134688;28;20035;-64
2024/01/28 08:04:49;;;;;;;9.57;4.15;;;1.40;99.90;;;;;;5134618;28;20045;-65
2024/01/28 08:07:14;;;;;;;10.52;5.18;;;1.40;99.90;;;;;;5134650;28;20049;-64
2024/01/28 08:09:41;;;;;;;10.13;4.50;;;1.50;99.90;;;;;;5134450;28;20046;-65
2024/01/28 08:12:07;;;;;;;15.77;5.72;;;1.50;99.90;;;;;;5134509;28;20016;-65
2024/01/28 08:14:33;;;;;;;15.35;4.63;;;1.50;99.90;;;;;;5134550;28;20024;-64
2024/01/28 08:16:58;;;;;;;11.38;4.80;;;1.50;99.90;;;;;;5134376;28;20028;-65
2024/01/28 08:19:24;;;;;;;16.20;4.85;;;1.50;99.90;;;;;;5134132;28;20057;-64
2024/01/28 08:21:50;;;;;;;9.45;4.32;;;1.50;99.90;;;;;;5134255;28;20053;-65
2024/01/28 08:24:16;;;;;;;8.77;4.43;;;1.50;99.90;;;;;;5134346;28;20035;-64
2024/01/28 08:26:41;;;;;;;18.02;6.38;;;1.60;99.90;;;;;;5134170;28;20053;-64
2024/01/28 08:29:07;;;;;;;13.02;5.40;;;1.60;99.90;;;;;;5133822;28;20048;-65
2024/01/28 08:31:33;;;;;;;17.10;6.30;;;1.70;99.90;;;;;;5134062;28;20023;-65
2024/01/28 08:34:00;;;;;;;9.23;4.97;;;1.70;99.90;;;;;;5134021;28;20035;-65
2024/01/28 08:36:26;;;;;;;10.52;4.57;;;1.80;99.90;;;;;;5134050;28;20015;-65
2024/01/28 08:38:52;;;;;;;13.20;4.97;;;1.80;99.90;;;;;;5134024;28;20096;-64
2024/01/28 08:41:17;;;;;;;12.68;4.28;;;1.80;99.90;;;;;;5133986;28;20016;-65
2024/01/28 08:43:43;;;;;;;11.07;4.20;;;1.90;99.90;;;;;;5133864;28;20032;-65
2024/01/28 08:46:09;;;;;;;14.88;4.32;;;1.90;99.90;;;;;;5133744;28;20040;-65
2024/01/28 08:48:35;;;;;;;9.30;3.92;;;1.90;99.90;;;;;;5128030;28;20046;-65
2024/01/28 08:51:01;;;;;;;13.13;4.85;;;1.90;99.90;;;;;;5133748;28;20134;-65
2024/01/28 08:53:27;;;;;;;8.43;3.90;;;1.90;99.90;;;;;;5133777;28;20055;-64
2024/01/28 08:55:52;;;;;;;12.02;4.60;;;2.00;99.90;;;;;;5133820;28;20027;-64
2024/01/28 08:58:18;;;;;;;12.98;4.65;;;2.10;99.90;;;;;;5133532;28;20032;-65
2024/01/28 09:00:43;;;;;;;9.25;4.72;;;2.20;99.90;;;;;;5132663;28;20035;-65
2024/01/28 09:03:09;;;;;;;10.25;4.18;;;2.30;99.90;;;;;;5133627;28;20107;-65
2024/01/28 09:05:34;;;;;;;8.68;4.50;;;2.30;99.90;;;;;;5133590;28;20032;-65
2024/01/28 09:08:00;;;;;;;11.90;4.50;;;2.40;99.90;;;;;;5133561;28;20028;-65
2024/01/28 09:10:26;;;;;;;10.90;4.68;;;2.50;99.90;;;;;;5115521;28;20038;-65
2024/01/28 09:12:52;;;;;;;8.38;4.35;;;2.60;99.90;;;;;;5133480;28;20034;-65
2024/01/28 09:15:17;;;;;;;13.90;4.45;;;2.60;99.90;;;;;;5133317;28;20032;-65
2024/01/28 09:17:43;;;;;;;11.30;4.45;;;2.80;99.90;;;;;;5133418;28;20015;-65
2024/01/28 09:20:09;;;;;;;10.63;4.43;;;2.80;99.90;;;;;;5133178;28;20028;-65
2024/01/28 09:22:36;;;;;;;7.47;3.42;;;2.90;99.90;;;;;;5133498;28;20034;-65
2024/01/28 09:25:05;;;;;;;8.57;3.63;;;3.00;99.90;;;;;;5133291;28;20028;-65
2024/01/28 09:27:31;;;;;;;7.20;3.45;;;3.10;99.90;;;;;;5133326;28;20057;-65
2024/01/28 09:29:57;;;;;;;8.40;3.40;;;3.20;99.90;;;;;;5132983;28;20043;-65
2024/01/28 09:32:26;;;;;;;8.57;4.00;;;3.30;99.90;;;;;;5133149;28;20410;-65
2024/01/28 09:34:52;;;;;;;13.32;3.50;;;3.30;99.90;;;;;;5133031;28;20066;-65
2024/01/28 09:37:18;;;;;;;9.48;4.32;;;3.50;99.90;;;;;;5132545;28;20065;-65
2024/01/28 09:39:44;;;;;;;6.95;3.58;;;3.50;99.90;;;;;;5133039;28;20044;-66
2024/01/28 09:42:23;;;;;;;15.60;4.35;;;3.60;99.90;;;;;;5131874;28;20020;-65
2024/01/28 09:44:49;;;;;;;12.35;4.82;;;3.70;99.90;;;;;;5112678;28;20054;-65
2024/01/28 09:47:17;;;;;;;7.97;3.10;;;3.80;99.90;;;;;;5111141;28;20089;-65
2024/01/28 09:49:44;;;;;;;8.30;3.72;;;3.90;99.90;;;;;;5110486;28;20039;-64
2024/01/28 09:52:10;;;;;;;8.73;3.55;;;4.00;99.90;;;;;;5110722;28;20083;-66
2024/01/28 09:54:47;;;;;;;12.25;4.03;;;4.00;99.90;;;;;;5111682;28;20025;-64
2024/01/28 09:57:14;;;;;;;8.00;3.65;;;4.10;99.90;;;;;;5112560;28;20051;-64
2024/01/28 09:59:40;;;;;;;7.00;3.80;;;4.20;99.90;;;;;;5111564;28;20525;-65
2024/01/28 10:02:06;;;;;;;7.28;3.65;;;4.30;99.90;;;;;;5111985;28;20025;-64
2024/01/28 10:04:33;;;;;;;8.68;3.65;;;4.40;99.90;;;;;;5112249;28;20024;-64
2024/01/28 10:07:02;;;;;;;8.30;3.42;;;4.50;99.90;;;;;;5112286;28;20039;-64
2024/01/28 10:09:31;;;;;;;8.93;3.67;;;4.50;99.90;;;;;;5112001;28;20032;-63
2024/01/28 10:12:00;;;;;;;8.73;4.30;;;4.60;99.90;;;;;;5111801;28;20020;-64
2024/01/28 10:14:27;;;;;;;12.93;4.25;;;4.70;99.90;;;;;;5112325;28;20024;-64
2024/01/28 10:16:53;;;;;;;4.82;2.70;;;4.80;99.90;;;;;;5112242;28;20020;-64
2024/01/28 10:19:18;;;;;;;5.35;2.92;;;4.90;99.90;;;;;;5111891;28;20043;-64
2024/01/28 10:21:44;;;;;;;11.68;3.90;;;4.90;99.90;;;;;;5111827;28;20043;-64
2024/01/28 10:24:11;;;;;;;8.27;3.67;;;5.00;99.90;;;;;;5111901;28;20028;-64
2024/01/28 10:26:37;;;;;;;10.50;3.90;;;5.10;99.90;;;;;;5112043;28;20032;-64
2024/01/28 10:29:03;;;;;;;8.98;3.63;;;5.20;99.90;;;;;;5111531;28;20036;-64
2024/01/28 10:31:29;;;;;;;4.63;2.92;;;5.30;99.90;;;;;;5112000;28;20035;-64
2024/01/28 10:33:55;;;;;;;9.23;3.33;;;5.40;99.90;;;;;;5111683;28;20077;-65
2024/01/28 10:36:21;;;;;;;7.30;3.33;;;5.50;99.90;;;;;;5111633;28;20032;-64
2024/01/28 10:38:48;;;;;;;9.77;3.90;;;5.50;99.90;;;;;;5111842;28;20054;-64
2024/01/28 10:41:18;;;;;;;6.05;3.15;;;5.60;99.90;;;;;;5111795;28;20084;-64
2024/01/28 10:44:07;;;;;;;9.85;3.60;;;5.60;99.90;;;;;;5111673;28;20035;-64
2024/01/28 10:46:38;;;;;;;5.63;2.70;;;5.70;99.90;;;;;;5102360;28;20123;-64
2024/01/28 10:49:06;;;;;;;5.95;3.00;;;5.80;99.90;;;;;;5112568;28;20035;-64
2024/01/28 10:51:33;;;;;;;9.85;3.78;;;5.90;99.90;;;;;;5115446;28;20020;-64
2024/01/28 10:54:01;;;;;;;4.47;2.95;;;6.00;99.90;;;;;;5115177;28;20012;-64
2024/01/28 10:56:27;;;;;;;5.95;2.83;;;6.00;99.90;;;;;;5115359;28;20050;-64
2024/01/28 10:58:53;;;;;;;11.88;3.95;;;6.10;99.90;;;;;;5115193;28;20020;-65
2024/01/28 11:01:19;;;;;;;8.75;3.33;;;6.30;99.90;;;;;;5113987;28;20054;-65
2024/01/28 11:03:46;;;;;;;5.72;2.90;;;6.40;99.90;;;;;;5115000;28;20028;-64
2024/01/28 11:06:17;;;;;;;8.93;3.65;;;6.40;99.90;;;;;;5113901;28;20035;-65
2024/01/28 11:08:43;;;;;;;7.70;2.90;;;6.50;99.90;;;;;;5115138;28;20027;-64
2024/01/28 11:11:09;;;;;;;5.40;3.17;;;6.60;99.90;;;;;;5114183;28;20028;-65
2024/01/28 11:13:34;;;;;;;6.60;3.25;;;6.70;99.90;;;;;;5114999;28;20020;-64
2024/01/28 11:16:00;;;;;;;7.18;3.70;;;6.70;99.90;;;;;;5114592;28;20024;-64
2024/01/28 11:18:29;;;;;;;9.20;3.70;;;6.90;99.90;;;;;;5114762;28;20118;-65
2024/01/28 11:20:55;;;;;;;6.85;2.85;;;6.90;99.90;;;;;;5114701;28;20028;-64
2024/01/28 11:23:21;;;;;;;10.63;3.60;;;7.00;99.90;;;;;;5114944;28;20028;-65
2024/01/28 11:25:47;;;;;;;8.80;3.10;;;7.00;99.90;;;;;;5114671;28;20031;-65
2024/01/28 11:28:14;;;;;;;12.32;3.70;;;7.10;99.90;;;;;;5114569;28;20035;-65
2024/01/28 11:30:45;;;;;;;8.63;3.60;;;7.20;99.90;;;;;;5113273;28;20081;-65
2024/01/28 11:33:12;;;;;;;4.68;2.72;;;7.30;99.90;;;;;;5114570;28;20020;-64
2024/01/28 11:35:41;;;;;;;6.00;3.25;;;7.30;99.90;;;;;;5114606;28;20020;-65
2024/01/28 11:38:09;;;;;;;6.55;3.50;;;7.40;99.90;;;;;;5114417;28;20021;-65
2024/01/28 11:40:37;;;;;;;7.05;2.67;;;7.50;99.90;;;;;;5114551;28;20078;-64
2024/01/28 11:43:07;;;;;;;10.43;3.45;;;7.60;99.90;;;;;;5114402;28;20028;-64
2024/01/28 11:45:36;;;;;;;11.13;3.83;;;7.70;99.90;;;;;;5114439;28;20046;-64
2024/01/28 11:48:09;;;;;;;6.65;2.83;;;7.80;99.90;;;;;;5114007;28;20024;-65
2024/01/28 11:50:35;;;;;;;12.00;3.60;;;7.90;99.90;;;;;;5114184;28;20028;-64
2024/01/28 11:53:00;;;;;;;12.88;3.13;;;7.90;99.90;;;;;;5114273;28;20038;-64
2024/01/28 11:55:26;;;;;;;6.90;3.35;;;7.90;99.90;;;;;;5114125;28;20024;-65
2024/01/28 11:57:52;;;;;;;9.38;3.60;;;8.00;99.90;;;;;;5114021;28;20028;-65
2024/01/28 12:00:18;;;;;;;6.75;2.97;;;8.00;99.90;;;;;;5113605;28;20116;-64
2024/01/28 12:02:44;;;;;;;7.85;3.38;;;8.10;99.90;;;;;;5113932;28;20020;-64
2024/01/28 12:05:10;;;;;;;8.18;3.38;;;8.20;99.90;;;;;;5113853;28;20025;-64
2024/01/28 12:07:37;;;;;;;6.45;2.97;;;8.30;99.90;;;;;;5113783;28;20031;-65
2024/01/28 12:10:07;;;;;;;7.00;3.05;;;8.30;99.90;;;;;;5113396;28;20024;-64
2024/01/28 12:12:34;;;;;;;6.68;2.85;;;8.40;99.90;;;;;;5113787;28;20050;-65
2024/01/28 12:15:02;;;;;;;7.75;3.13;;;8.50;99.90;;;;;;5113763;28;20020;-64
2024/01/28 12:17:27;;;;;;;8.55;3.05;;;8.60;99.90;;;;;;5113806;28;20030;-63
2024/01/28 12:19:53;;;;;;;5.53;3.10;;;8.70;99.90;;;;;;5113414;28;20032;-64
2024/01/28 12:22:19;;;;;;;7.82;2.90;;;8.80;99.90;;;;;;5112743;28;20028;-63
2024/01/28 12:24:46;;;;;;;8.18;3.17;;;8.90;99.90;;;;;;5113513;28;20054;-65
2024/01/28 12:27:12;;;;;;;8.60;3.20;;;8.90;99.90;;;;;;5113623;28;20024;-65
2024/01/28 12:29:37;;;;;;;11.38;3.85;;;9.00;99.90;;;;;;5113272;28;20048;-66
2024/01/28 12:32:03;;;;;;;5.43;3.00;;;9.20;99.90;;;;;;5113318;28;20032;-64
2024/01/28 12:34:29;;;;;;;11.13;4.47;;;9.20;99.90;;;;;;5113552;28;20035;-64
2024/01/28 12:36:54;;;;;;;9.55;3.97;;;9.30;99.90;;;;;;5113371;28;20036;-64
2024/01/28 12:39:20;;;;;;;6.20;3.60;;;9.30;99.90;;;;;;5112240;28;20032;-64
2024/01/28 12:41:45;;;;;;;8.27;3.78;;;9.40;99.90;;;;;;5113325;28;20044;-64
2024/01/28 12:44:11;;;;;;;6.13;3.55;;;9.40;99.90;;;;;;5113290;28;20950;-63
2024/01/28 12:46:37;;;;;;;10.90;4.32;;;9.50;99.90;;;;;;5113262;28;20084;-64